sensor_id;sensor_type;location;lat;lon;timestamp;P1;durP1;ratioP1;P2;durP2;ratioP2
16450;SDS011;12243;42.708;23.310;2023-08-20T00:02:14;5.55;;;5.10;;
16450;SDS011;12243;42.708;23.310;2023-08-20T00:04:44;5.22;;;4.90;;
16450;SDS011;12243;42.708;23.310;2023-08-20T00:07:12;5.97;;;5.55;;
16450;SDS011;12243;42.708;23.310;2023-08-20T00:09:41;6.63;;;5.57;;
16450;SDS011;12243;42.708;23.310;2023-08-20T00:12:09;6.25;;;5.75;;
16450;SDS011;12243;42.708;23.310;2023-08-20T00:14:51;6.30;;;5.70;;
16450;SDS011;12243;42.708;23.310;2023-08-20T00:17:20;5.90;;;5.40;;
16450;SDS011;12243;42.708;23.310;2023-08-20T00:19:50;7.88;;;5.47;;
16450;SDS011;12243;42.708;23.310;2023-08-20T00:22:17;7.00;;;5.90;;
16450;SDS011;12243;42.708;23.310;2023-08-20T00:24:44;6.93;;;5.45;;
16450;SDS011;12243;42.708;23.310;2023-08-20T00:27:13;6.18;;;5.57;;
16450;SDS011;12243;42.708;23.310;2023-08-20T00:29:40;6.90;;;5.85;;
16450;SDS011;12243;42.708;23.310;2023-08-20T00:32:07;6.10;;;5.57;;
16450;SDS011;12243;42.708;23.310;2023-08-20T00:34:33;6.20;;;5.75;;
16450;SDS011;12243;42.708;23.310;2023-08-20T00:37:01;5.82;;;5.43;;
16450;SDS011;12243;42.708;23.310;2023-08-20T00:39:28;6.65;;;6.10;;
16450;SDS011;12243;42.708;23.310;2023-08-20T00:41:55;7.28;;;5.78;;
16450;SDS011;12243;42.708;23.310;2023-08-20T00:44:24;6.97;;;6.30;;
16450;SDS011;12243;42.708;23.310;2023-08-20T00:46:51;6.13;;;5.63;;
16450;SDS011;12243;42.708;23.310;2023-08-20T00:49:19;6.57;;;5.95;;
16450;SDS011;12243;42.708;23.310;2023-08-20T00:51:46;6.30;;;5.72;;
16450;SDS011;12243;42.708;23.310;2023-08-20T00:54:14;8.48;;;5.40;;
16450;SDS011;12243;42.708;23.310;2023-08-20T00:56:42;7.00;;;6.32;;
16450;SDS011;12243;42.708;23.310;2023-08-20T00:59:09;7.38;;;6.72;;
16450;SDS011;12243;42.708;23.310;2023-08-20T01:01:38;6.68;;;6.07;;
16450;SDS011;12243;42.708;23.310;2023-08-20T01:04:05;6.72;;;6.10;;
16450;SDS011;12243;42.708;23.310;2023-08-20T01:06:33;6.35;;;5.85;;
16450;SDS011;12243;42.708;23.310;2023-08-20T01:09:09;7.55;;;6.10;;
16450;SDS011;12243;42.708;23.310;2023-08-20T01:11:47;6.00;;;5.53;;
16450;SDS011;12243;42.708;23.310;2023-08-20T01:14:20;6.20;;;5.80;;
16450;SDS011;12243;42.708;23.310;2023-08-20T01:16:49;6.25;;;5.70;;
16450;SDS011;12243;42.708;23.310;2023-08-20T01:19:16;6.70;;;6.18;;
16450;SDS011;12243;42.708;23.310;2023-08-20T01:21:46;6.50;;;6.10;;
16450;SDS011;12243;42.708;23.310;2023-08-20T01:24:24;7.30;;;6.20;;
16450;SDS011;12243;42.708;23.310;2023-08-20T01:27:10;7.53;;;6.20;;
16450;SDS011;12243;42.708;23.310;2023-08-20T01:29:54;6.13;;;5.63;;
16450;SDS011;12243;42.708;23.310;2023-08-20T01:32:23;7.07;;;6.47;;
16450;SDS011;12243;42.708;23.310;2023-08-20T01:34:51;6.97;;;6.30;;
16450;SDS011;12243;42.708;23.310;2023-08-20T01:37:19;7.18;;;6.47;;
16450;SDS011;12243;42.708;23.310;2023-08-20T01:39:48;8.27;;;6.40;;
16450;SDS011;12243;42.708;23.310;2023-08-20T01:42:14;7.65;;;6.75;;
16450;SDS011;12243;42.708;23.310;2023-08-20T01:44:41;8.27;;;5.85;;
16450;SDS011;12243;42.708;23.310;2023-08-20T01:47:10;7.18;;;6.47;;
16450;SDS011;12243;42.708;23.310;2023-08-20T01:49:36;7.13;;;6.38;;
16450;SDS011;12243;42.708;23.310;2023-08-20T01:52:03;6.53;;;6.03;;
16450;SDS011;12243;42.708;23.310;2023-08-20T01:54:30;7.00;;;6.30;;
16450;SDS011;12243;42.708;23.310;2023-08-20T01:56:57;7.32;;;6.63;;
16450;SDS011;12243;42.708;23.310;2023-08-20T01:59:24;7.75;;;7.00;;
16450;SDS011;12243;42.708;23.310;2023-08-20T02:01:51;7.57;;;6.50;;
16450;SDS011;12243;42.708;23.310;2023-08-20T02:04:19;7.97;;;7.28;;
16450;SDS011;12243;42.708;23.310;2023-08-20T02:06:46;7.10;;;6.50;;
16450;SDS011;12243;42.708;23.310;2023-08-20T02:09:13;7.00;;;6.35;;
16450;SDS011;12243;42.708;23.310;2023-08-20T02:11:40;10.07;;;7.05;;
16450;SDS011;12243;42.708;23.310;2023-08-20T02:14:07;7.22;;;6.07;;
16450;SDS011;12243;42.708;23.310;2023-08-20T02:16:34;7.53;;;6.93;;
16450;SDS011;12243;42.708;23.310;2023-08-20T02:19:02;9.38;;;7.22;;
16450;SDS011;12243;42.708;23.310;2023-08-20T02:21:32;10.95;;;6.57;;
16450;SDS011;12243;42.708;23.310;2023-08-20T02:23:59;7.88;;;7.18;;
16450;SDS011;12243;42.708;23.310;2023-08-20T02:26:26;7.88;;;7.07;;
16450;SDS011;12243;42.708;23.310;2023-08-20T02:28:53;7.57;;;6.90;;
16450;SDS011;12243;42.708;23.310;2023-08-20T02:31:20;7.63;;;6.97;;
16450;SDS011;12243;42.708;23.310;2023-08-20T02:33:47;7.07;;;6.38;;
16450;SDS011;12243;42.708;23.310;2023-08-20T02:36:13;7.15;;;6.55;;
16450;SDS011;12243;42.708;23.310;2023-08-20T02:38:44;7.88;;;6.72;;
16450;SDS011;12243;42.708;23.310;2023-08-20T02:41:11;8.15;;;6.65;;
16450;SDS011;12243;42.708;23.310;2023-08-20T02:43:38;7.50;;;6.80;;
16450;SDS011;12243;42.708;23.310;2023-08-20T02:46:06;7.85;;;6.90;;
16450;SDS011;12243;42.708;23.310;2023-08-20T02:48:33;8.82;;;6.70;;
16450;SDS011;12243;42.708;23.310;2023-08-20T02:51:00;7.30;;;6.70;;
16450;SDS011;12243;42.708;23.310;2023-08-20T02:53:27;7.93;;;6.85;;
16450;SDS011;12243;42.708;23.310;2023-08-20T02:55:56;7.82;;;7.00;;
16450;SDS011;12243;42.708;23.310;2023-08-20T02:58:23;8.18;;;7.07;;
16450;SDS011;12243;42.708;23.310;2023-08-20T03:00:49;11.30;;;6.82;;
16450;SDS011;12243;42.708;23.310;2023-08-20T03:03:16;7.28;;;6.65;;
16450;SDS011;12243;42.708;23.310;2023-08-20T03:05:43;8.48;;;7.15;;
16450;SDS011;12243;42.708;23.310;2023-08-20T03:08:10;8.52;;;7.15;;
16450;SDS011;12243;42.708;23.310;2023-08-20T03:10:37;7.80;;;7.03;;
16450;SDS011;12243;42.708;23.310;2023-08-20T03:13:05;6.90;;;6.30;;
16450;SDS011;12243;42.708;23.310;2023-08-20T03:15:32;8.68;;;7.05;;
16450;SDS011;12243;42.708;23.310;2023-08-20T03:17:59;7.60;;;6.32;;
16450;SDS011;12243;42.708;23.310;2023-08-20T03:20:26;7.25;;;6.55;;
16450;SDS011;12243;42.708;23.310;2023-08-20T03:22:53;7.80;;;7.00;;
16450;SDS011;12243;42.708;23.310;2023-08-20T03:25:20;9.77;;;6.93;;
16450;SDS011;12243;42.708;23.310;2023-08-20T03:27:47;6.43;;;5.80;;
16450;SDS011;12243;42.708;23.310;2023-08-20T03:30:15;6.95;;;6.28;;
16450;SDS011;12243;42.708;23.310;2023-08-20T03:32:44;9.68;;;6.68;;
16450;SDS011;12243;42.708;23.310;2023-08-20T03:35:10;6.90;;;6.30;;
16450;SDS011;12243;42.708;23.310;2023-08-20T03:37:37;8.35;;;7.28;;
16450;SDS011;12243;42.708;23.310;2023-08-20T03:40:05;7.28;;;6.68;;
16450;SDS011;12243;42.708;23.310;2023-08-20T03:42:32;8.00;;;6.65;;
16450;SDS011;12243;42.708;23.310;2023-08-20T03:44:59;6.88;;;6.28;;
16450;SDS011;12243;42.708;23.310;2023-08-20T03:47:27;6.72;;;6.13;;
16450;SDS011;12243;42.708;23.310;2023-08-20T03:49:54;8.63;;;6.43;;
16450;SDS011;12243;42.708;23.310;2023-08-20T03:52:21;6.72;;;6.03;;
16450;SDS011;12243;42.708;23.310;2023-08-20T03:54:48;6.97;;;6.28;;
16450;SDS011;12243;42.708;23.310;2023-08-20T03:57:16;9.23;;;6.80;;
16450;SDS011;12243;42.708;23.310;2023-08-20T03:59:43;7.97;;;7.20;;
16450;SDS011;12243;42.708;23.310;2023-08-20T04:02:12;7.78;;;7.18;;
16450;SDS011;12243;42.708;23.310;2023-08-20T04:04:41;8.93;;;6.70;;
16450;SDS011;12243;42.708;23.310;2023-08-20T04:07:07;7.47;;;6.68;;
16450;SDS011;12243;42.708;23.310;2023-08-20T04:09:34;7.32;;;6.20;;
16450;SDS011;12243;42.708;23.310;2023-08-20T04:12:01;11.25;;;6.75;;
16450;SDS011;12243;42.708;23.310;2023-08-20T04:14:29;7.72;;;6.97;;
16450;SDS011;12243;42.708;23.310;2023-08-20T04:16:56;10.00;;;6.80;;
16450;SDS011;12243;42.708;23.310;2023-08-20T04:19:23;8.13;;;6.63;;
16450;SDS011;12243;42.708;23.310;2023-08-20T04:21:51;10.38;;;6.95;;
16450;SDS011;12243;42.708;23.310;2023-08-20T04:24:18;10.25;;;7.13;;
16450;SDS011;12243;42.708;23.310;2023-08-20T04:26:45;9.63;;;7.03;;
16450;SDS011;12243;42.708;23.310;2023-08-20T04:29:16;9.10;;;6.78;;
16450;SDS011;12243;42.708;23.310;2023-08-20T04:31:44;6.70;;;6.00;;
16450;SDS011;12243;42.708;23.310;2023-08-20T04:34:11;6.95;;;6.35;;
16450;SDS011;12243;42.708;23.310;2023-08-20T04:36:43;7.32;;;6.63;;
16450;SDS011;12243;42.708;23.310;2023-08-20T04:39:12;7.82;;;6.82;;
16450;SDS011;12243;42.708;23.310;2023-08-20T04:41:43;7.18;;;6.47;;
16450;SDS011;12243;42.708;23.310;2023-08-20T04:44:14;7.43;;;6.45;;
16450;SDS011;12243;42.708;23.310;2023-08-20T04:46:42;6.57;;;6.07;;
16450;SDS011;12243;42.708;23.310;2023-08-20T04:49:09;10.50;;;6.30;;
16450;SDS011;12243;42.708;23.310;2023-08-20T04:51:38;6.93;;;6.40;;
16450;SDS011;12243;42.708;23.310;2023-08-20T04:54:05;7.40;;;6.65;;
16450;SDS011;12243;42.708;23.310;2023-08-20T04:56:33;7.70;;;6.90;;
16450;SDS011;12243;42.708;23.310;2023-08-20T04:59:00;7.28;;;6.55;;
16450;SDS011;12243;42.708;23.310;2023-08-20T05:01:56;9.38;;;6.82;;
16450;SDS011;12243;42.708;23.310;2023-08-20T05:04:36;6.95;;;6.00;;
16450;SDS011;12243;42.708;23.310;2023-08-20T05:07:03;6.93;;;6.22;;
16450;SDS011;12243;42.708;23.310;2023-08-20T05:09:30;7.85;;;7.13;;
16450;SDS011;12243;42.708;23.310;2023-08-20T05:11:59;7.45;;;6.75;;
16450;SDS011;12243;42.708;23.310;2023-08-20T05:14:25;7.65;;;6.75;;
16450;SDS011;12243;42.708;23.310;2023-08-20T05:16:52;7.45;;;6.75;;
16450;SDS011;12243;42.708;23.310;2023-08-20T05:19:19;9.30;;;6.47;;
16450;SDS011;12243;42.708;23.310;2023-08-20T05:21:46;7.20;;;6.50;;
16450;SDS011;12243;42.708;23.310;2023-08-20T05:24:14;7.85;;;7.13;;
16450;SDS011;12243;42.708;23.310;2023-08-20T05:26:41;9.60;;;6.90;;
16450;SDS011;12243;42.708;23.310;2023-08-20T05:29:10;7.95;;;6.45;;
16450;SDS011;12243;42.708;23.310;2023-08-20T05:31:37;11.77;;;6.93;;
16450;SDS011;12243;42.708;23.310;2023-08-20T05:34:04;7.53;;;6.22;;
16450;SDS011;12243;42.708;23.310;2023-08-20T05:36:32;9.77;;;6.47;;
16450;SDS011;12243;42.708;23.310;2023-08-20T05:38:59;7.00;;;6.38;;
16450;SDS011;12243;42.708;23.310;2023-08-20T05:41:26;7.28;;;6.57;;
16450;SDS011;12243;42.708;23.310;2023-08-20T05:43:53;8.43;;;6.93;;
16450;SDS011;12243;42.708;23.310;2023-08-20T05:46:22;6.97;;;6.38;;
16450;SDS011;12243;42.708;23.310;2023-08-20T05:48:49;9.32;;;7.05;;
16450;SDS011;12243;42.708;23.310;2023-08-20T05:51:16;7.25;;;6.57;;
16450;SDS011;12243;42.708;23.310;2023-08-20T05:53:42;7.93;;;6.25;;
16450;SDS011;12243;42.708;23.310;2023-08-20T05:56:09;6.43;;;5.93;;
16450;SDS011;12243;42.708;23.310;2023-08-20T05:58:36;6.60;;;6.00;;
16450;SDS011;12243;42.708;23.310;2023-08-20T06:01:04;7.68;;;6.97;;
16450;SDS011;12243;42.708;23.310;2023-08-20T06:03:32;7.35;;;6.53;;
16450;SDS011;12243;42.708;23.310;2023-08-20T06:05:59;8.55;;;7.20;;
16450;SDS011;12243;42.708;23.310;2023-08-20T06:08:26;8.68;;;6.00;;
16450;SDS011;12243;42.708;23.310;2023-08-20T06:10:52;6.47;;;5.97;;
16450;SDS011;12243;42.708;23.310;2023-08-20T06:13:19;6.38;;;5.88;;
16450;SDS011;12243;42.708;23.310;2023-08-20T06:15:46;7.15;;;6.38;;
16450;SDS011;12243;42.708;23.310;2023-08-20T06:18:13;10.70;;;6.90;;
16450;SDS011;12243;42.708;23.310;2023-08-20T06:20:41;6.70;;;6.13;;
16450;SDS011;12243;42.708;23.310;2023-08-20T06:23:08;7.18;;;6.53;;
16450;SDS011;12243;42.708;23.310;2023-08-20T06:25:35;7.82;;;7.03;;
16450;SDS011;12243;42.708;23.310;2023-08-20T06:28:02;7.53;;;6.85;;
16450;SDS011;12243;42.708;23.310;2023-08-20T06:30:30;7.53;;;6.85;;
16450;SDS011;12243;42.708;23.310;2023-08-20T06:32:56;8.98;;;7.25;;
16450;SDS011;12243;42.708;23.310;2023-08-20T06:35:23;8.63;;;7.60;;
16450;SDS011;12243;42.708;23.310;2023-08-20T06:37:51;7.80;;;7.10;;
16450;SDS011;12243;42.708;23.310;2023-08-20T06:40:18;7.80;;;7.10;;
16450;SDS011;12243;42.708;23.310;2023-08-20T06:42:45;8.55;;;7.85;;
16450;SDS011;12243;42.708;23.310;2023-08-20T06:45:12;7.60;;;7.10;;
16450;SDS011;12243;42.708;23.310;2023-08-20T06:47:39;7.57;;;6.97;;
16450;SDS011;12243;42.708;23.310;2023-08-20T06:50:06;7.80;;;6.93;;
16450;SDS011;12243;42.708;23.310;2023-08-20T06:52:33;8.38;;;7.53;;
16450;SDS011;12243;42.708;23.310;2023-08-20T06:55:01;7.03;;;6.57;;
16450;SDS011;12243;42.708;23.310;2023-08-20T06:57:28;6.95;;;6.40;;
16450;SDS011;12243;42.708;23.310;2023-08-20T06:59:55;8.20;;;7.13;;
16450;SDS011;12243;42.708;23.310;2023-08-20T07:02:22;7.15;;;6.63;;
16450;SDS011;12243;42.708;23.310;2023-08-20T07:04:49;7.13;;;6.53;;
16450;SDS011;12243;42.708;23.310;2023-08-20T07:07:15;7.47;;;6.53;;
16450;SDS011;12243;42.708;23.310;2023-08-20T07:09:42;7.53;;;6.72;;
16450;SDS011;12243;42.708;23.310;2023-08-20T07:12:10;7.75;;;7.05;;
16450;SDS011;12243;42.708;23.310;2023-08-20T07:14:39;9.45;;;7.40;;
16450;SDS011;12243;42.708;23.310;2023-08-20T07:17:06;8.48;;;6.85;;
16450;SDS011;12243;42.708;23.310;2023-08-20T07:19:33;7.00;;;6.40;;
16450;SDS011;12243;42.708;23.310;2023-08-20T07:22:00;8.13;;;6.20;;
16450;SDS011;12243;42.708;23.310;2023-08-20T07:24:27;6.30;;;5.80;;
16450;SDS011;12243;42.708;23.310;2023-08-20T07:26:55;6.30;;;5.80;;
16450;SDS011;12243;42.708;23.310;2023-08-20T07:29:27;7.65;;;5.70;;
16450;SDS011;12243;42.708;23.310;2023-08-20T07:31:55;6.18;;;5.78;;
16450;SDS011;12243;42.708;23.310;2023-08-20T07:34:22;6.22;;;5.68;;
16450;SDS011;12243;42.708;23.310;2023-08-20T07:36:49;6.53;;;5.97;;
16450;SDS011;12243;42.708;23.310;2023-08-20T07:39:16;6.43;;;5.90;;
16450;SDS011;12243;42.708;23.310;2023-08-20T07:41:42;6.32;;;5.90;;
16450;SDS011;12243;42.708;23.310;2023-08-20T07:44:09;5.95;;;5.45;;
16450;SDS011;12243;42.708;23.310;2023-08-20T07:46:37;6.43;;;5.85;;
16450;SDS011;12243;42.708;23.310;2023-08-20T07:49:04;6.07;;;5.38;;
16450;SDS011;12243;42.708;23.310;2023-08-20T07:51:31;5.72;;;5.32;;
16450;SDS011;12243;42.708;23.310;2023-08-20T07:53:58;6.40;;;5.40;;
16450;SDS011;12243;42.708;23.310;2023-08-20T07:56:25;6.13;;;5.63;;
16450;SDS011;12243;42.708;23.310;2023-08-20T07:58:52;6.07;;;5.45;;
16450;SDS011;12243;42.708;23.310;2023-08-20T08:01:19;5.78;;;5.28;;
16450;SDS011;12243;42.708;23.310;2023-08-20T08:03:49;5.60;;;5.30;;
16450;SDS011;12243;42.708;23.310;2023-08-20T08:06:15;5.13;;;4.82;;
16450;SDS011;12243;42.708;23.310;2023-08-20T08:08:42;6.00;;;5.40;;
16450;SDS011;12243;42.708;23.310;2023-08-20T08:11:10;5.88;;;5.40;;
16450;SDS011;12243;42.708;23.310;2023-08-20T08:13:37;8.45;;;5.57;;
16450;SDS011;12243;42.708;23.310;2023-08-20T08:16:03;5.47;;;5.07;;
16450;SDS011;12243;42.708;23.310;2023-08-20T08:18:30;5.90;;;4.93;;
16450;SDS011;12243;42.708;23.310;2023-08-20T08:20:59;6.18;;;5.00;;
16450;SDS011;12243;42.708;23.310;2023-08-20T08:23:25;6.10;;;5.15;;
16450;SDS011;12243;42.708;23.310;2023-08-20T08:25:52;5.45;;;5.05;;
16450;SDS011;12243;42.708;23.310;2023-08-20T08:28:19;5.90;;;5.40;;
16450;SDS011;12243;42.708;23.310;2023-08-20T08:30:46;5.40;;;4.95;;
16450;SDS011;12243;42.708;23.310;2023-08-20T08:33:13;5.30;;;4.80;;
16450;SDS011;12243;42.708;23.310;2023-08-20T08:35:39;5.47;;;4.80;;
16450;SDS011;12243;42.708;23.310;2023-08-20T08:38:08;6.25;;;5.07;;
16450;SDS011;12243;42.708;23.310;2023-08-20T08:40:34;6.13;;;5.55;;
16450;SDS011;12243;42.708;23.310;2023-08-20T08:43:01;5.78;;;5.28;;
16450;SDS011;12243;42.708;23.310;2023-08-20T08:45:28;5.75;;;5.18;;
16450;SDS011;12243;42.708;23.310;2023-08-20T08:47:56;6.20;;;5.63;;
16450;SDS011;12243;42.708;23.310;2023-08-20T08:50:23;5.50;;;5.00;;
16450;SDS011;12243;42.708;23.310;2023-08-20T08:52:50;6.15;;;4.80;;
16450;SDS011;12243;42.708;23.310;2023-08-20T08:55:20;4.95;;;4.57;;
16450;SDS011;12243;42.708;23.310;2023-08-20T08:57:47;4.75;;;4.28;;
16450;SDS011;12243;42.708;23.310;2023-08-20T09:00:14;5.78;;;5.20;;
16450;SDS011;12243;42.708;23.310;2023-08-20T09:02:41;6.03;;;4.95;;
16450;SDS011;12243;42.708;23.310;2023-08-20T09:05:08;7.03;;;5.30;;
16450;SDS011;12243;42.708;23.310;2023-08-20T09:07:37;5.68;;;5.28;;
16450;SDS011;12243;42.708;23.310;2023-08-20T09:10:08;6.07;;;5.43;;
16450;SDS011;12243;42.708;23.310;2023-08-20T09:12:37;5.18;;;4.78;;
16450;SDS011;12243;42.708;23.310;2023-08-20T09:15:09;5.70;;;5.20;;
16450;SDS011;12243;42.708;23.310;2023-08-20T09:17:36;4.97;;;4.68;;
16450;SDS011;12243;42.708;23.310;2023-08-20T09:20:03;5.57;;;5.00;;
16450;SDS011;12243;42.708;23.310;2023-08-20T09:22:31;5.68;;;5.18;;
16450;SDS011;12243;42.708;23.310;2023-08-20T09:24:57;5.53;;;5.00;;
16450;SDS011;12243;42.708;23.310;2023-08-20T09:27:24;5.30;;;4.80;;
16450;SDS011;12243;42.708;23.310;2023-08-20T09:29:54;5.22;;;4.90;;
16450;SDS011;12243;42.708;23.310;2023-08-20T09:32:25;7.97;;;4.57;;
16450;SDS011;12243;42.708;23.310;2023-08-20T09:34:53;3.60;;;3.40;;
16450;SDS011;12243;42.708;23.310;2023-08-20T09:37:22;4.90;;;3.80;;
16450;SDS011;12243;42.708;23.310;2023-08-20T09:39:49;4.25;;;4.05;;
16450;SDS011;12243;42.708;23.310;2023-08-20T09:42:17;4.90;;;4.60;;
16450;SDS011;12243;42.708;23.310;2023-08-20T09:44:44;3.50;;;3.30;;
16450;SDS011;12243;42.708;23.310;2023-08-20T09:47:14;4.05;;;3.75;;
16450;SDS011;12243;42.708;23.310;2023-08-20T09:49:42;3.72;;;3.42;;
16450;SDS011;12243;42.708;23.310;2023-08-20T09:52:10;3.75;;;3.50;;
16450;SDS011;12243;42.708;23.310;2023-08-20T09:54:42;3.47;;;3.28;;
16450;SDS011;12243;42.708;23.310;2023-08-20T09:57:19;3.55;;;3.20;;
16450;SDS011;12243;42.708;23.310;2023-08-20T09:59:53;4.70;;;4.30;;
16450;SDS011;12243;42.708;23.310;2023-08-20T10:02:21;5.13;;;3.72;;
16450;SDS011;12243;42.708;23.310;2023-08-20T10:04:48;3.40;;;3.20;;
16450;SDS011;12243;42.708;23.310;2023-08-20T10:07:16;3.13;;;2.95;;
16450;SDS011;12243;42.708;23.310;2023-08-20T10:09:43;4.07;;;3.60;;
16450;SDS011;12243;42.708;23.310;2023-08-20T10:12:12;3.72;;;3.53;;
16450;SDS011;12243;42.708;23.310;2023-08-20T10:14:39;3.70;;;3.45;;
16450;SDS011;12243;42.708;23.310;2023-08-20T10:17:07;3.20;;;3.10;;
16450;SDS011;12243;42.708;23.310;2023-08-20T10:19:36;3.60;;;3.50;;
16450;SDS011;12243;42.708;23.310;2023-08-20T10:22:03;3.92;;;3.65;;
16450;SDS011;12243;42.708;23.310;2023-08-20T10:24:47;3.50;;;3.30;;
16450;SDS011;12243;42.708;23.310;2023-08-20T10:27:23;5.57;;;3.78;;
16450;SDS011;12243;42.708;23.310;2023-08-20T10:29:53;3.78;;;3.45;;
16450;SDS011;12243;42.708;23.310;2023-08-20T10:32:21;3.63;;;3.42;;
16450;SDS011;12243;42.708;23.310;2023-08-20T10:35:12;3.58;;;3.38;;
16450;SDS011;12243;42.708;23.310;2023-08-20T10:43:29;3.00;;;2.90;;
16450;SDS011;12243;42.708;23.310;2023-08-20T10:46:03;3.42;;;3.25;;
16450;SDS011;12243;42.708;23.310;2023-08-20T10:48:31;3.38;;;3.17;;
16450;SDS011;12243;42.708;23.310;2023-08-20T10:51:06;3.40;;;3.20;;
16450;SDS011;12243;42.708;23.310;2023-08-20T10:53:37;3.50;;;3.30;;
16450;SDS011;12243;42.708;23.310;2023-08-20T10:56:11;3.55;;;3.35;;
16450;SDS011;12243;42.708;23.310;2023-08-20T10:58:43;3.13;;;3.00;;
16450;SDS011;12243;42.708;23.310;2023-08-20T11:01:18;3.30;;;2.92;;
16450;SDS011;12243;42.708;23.310;2023-08-20T11:03:46;3.10;;;3.00;;
16450;SDS011;12243;42.708;23.310;2023-08-20T11:06:16;3.53;;;3.22;;
16450;SDS011;12243;42.708;23.310;2023-08-20T11:08:43;3.50;;;3.20;;
16450;SDS011;12243;42.708;23.310;2023-08-20T11:11:11;3.22;;;3.10;;
16450;SDS011;12243;42.708;23.310;2023-08-20T11:13:38;3.08;;;2.90;;
16450;SDS011;12243;42.708;23.310;2023-08-20T11:16:05;3.10;;;3.00;;
16450;SDS011;12243;42.708;23.310;2023-08-20T11:18:34;3.67;;;3.47;;
16450;SDS011;12243;42.708;23.310;2023-08-20T11:21:01;3.35;;;3.25;;
16450;SDS011;12243;42.708;23.310;2023-08-20T11:23:29;3.85;;;3.33;;
16450;SDS011;12243;42.708;23.310;2023-08-20T11:25:57;4.07;;;3.40;;
16450;SDS011;12243;42.708;23.310;2023-08-20T11:28:27;3.28;;;3.08;;
16450;SDS011;12243;42.708;23.310;2023-08-20T11:30:55;4.45;;;3.40;;
16450;SDS011;12243;42.708;23.310;2023-08-20T11:33:22;3.50;;;3.15;;
16450;SDS011;12243;42.708;23.310;2023-08-20T11:35:51;3.55;;;3.38;;
16450;SDS011;12243;42.708;23.310;2023-08-20T11:38:19;3.15;;;2.97;;
16450;SDS011;12243;42.708;23.310;2023-08-20T11:40:49;4.22;;;3.85;;
16450;SDS011;12243;42.708;23.310;2023-08-20T11:43:16;3.38;;;3.28;;
16450;SDS011;12243;42.708;23.310;2023-08-20T11:45:44;3.20;;;3.10;;
16450;SDS011;12243;42.708;23.310;2023-08-20T11:48:12;5.30;;;3.22;;
16450;SDS011;12243;42.708;23.310;2023-08-20T11:50:39;4.07;;;3.78;;
16450;SDS011;12243;42.708;23.310;2023-08-20T11:53:07;3.80;;;3.50;;
16450;SDS011;12243;42.708;23.310;2023-08-20T11:55:35;3.72;;;3.30;;
16450;SDS011;12243;42.708;23.310;2023-08-20T11:58:03;4.03;;;3.83;;
16450;SDS011;12243;42.708;23.310;2023-08-20T12:00:30;3.53;;;3.25;;
16450;SDS011;12243;42.708;23.310;2023-08-20T12:02:58;5.05;;;3.75;;
16450;SDS011;12243;42.708;23.310;2023-08-20T12:05:28;3.33;;;3.03;;
16450;SDS011;12243;42.708;23.310;2023-08-20T12:07:56;3.08;;;2.97;;
16450;SDS011;12243;42.708;23.310;2023-08-20T12:10:24;3.45;;;3.33;;
16450;SDS011;12243;42.708;23.310;2023-08-20T12:12:52;3.35;;;3.25;;
16450;SDS011;12243;42.708;23.310;2023-08-20T12:15:23;3.75;;;3.47;;
16450;SDS011;12243;42.708;23.310;2023-08-20T12:17:57;4.47;;;3.38;;
16450;SDS011;12243;42.708;23.310;2023-08-20T12:20:26;3.47;;;3.28;;
16450;SDS011;12243;42.708;23.310;2023-08-20T12:22:54;4.22;;;3.28;;
16450;SDS011;12243;42.708;23.310;2023-08-20T12:25:21;3.35;;;3.13;;
16450;SDS011;12243;42.708;23.310;2023-08-20T12:27:48;3.50;;;3.30;;
16450;SDS011;12243;42.708;23.310;2023-08-20T12:30:15;3.67;;;3.47;;
16450;SDS011;12243;42.708;23.310;2023-08-20T12:32:43;4.05;;;3.60;;
16450;SDS011;12243;42.708;23.310;2023-08-20T12:35:10;3.90;;;3.70;;
16450;SDS011;12243;42.708;23.310;2023-08-20T12:37:37;3.15;;;3.05;;
16450;SDS011;12243;42.708;23.310;2023-08-20T12:40:04;3.75;;;3.55;;
16450;SDS011;12243;42.708;23.310;2023-08-20T12:42:36;4.00;;;3.60;;
16450;SDS011;12243;42.708;23.310;2023-08-20T12:45:04;3.50;;;3.35;;
16450;SDS011;12243;42.708;23.310;2023-08-20T12:47:32;3.80;;;3.50;;
16450;SDS011;12243;42.708;23.310;2023-08-20T12:50:00;4.00;;;3.80;;
16450;SDS011;12243;42.708;23.310;2023-08-20T12:52:29;4.07;;;3.80;;
16450;SDS011;12243;42.708;23.310;2023-08-20T12:54:56;3.67;;;3.47;;
16450;SDS011;12243;42.708;23.310;2023-08-20T12:57:23;3.80;;;3.60;;
16450;SDS011;12243;42.708;23.310;2023-08-20T12:59:50;4.03;;;3.80;;
16450;SDS011;12243;42.708;23.310;2023-08-20T13:02:17;3.97;;;3.67;;
16450;SDS011;12243;42.708;23.310;2023-08-20T13:04:45;3.78;;;3.20;;
16450;SDS011;12243;42.708;23.310;2023-08-20T13:07:14;3.45;;;3.35;;
16450;SDS011;12243;42.708;23.310;2023-08-20T13:09:42;4.00;;;3.45;;
16450;SDS011;12243;42.708;23.310;2023-08-20T13:12:09;4.05;;;3.13;;
16450;SDS011;12243;42.708;23.310;2023-08-20T13:14:38;3.70;;;3.50;;
16450;SDS011;12243;42.708;23.310;2023-08-20T13:17:06;3.92;;;3.58;;
16450;SDS011;12243;42.708;23.310;2023-08-20T13:19:34;3.70;;;3.35;;
16450;SDS011;12243;42.708;23.310;2023-08-20T13:22:00;3.50;;;3.22;;
16450;SDS011;12243;42.708;23.310;2023-08-20T13:24:29;3.63;;;3.42;;
16450;SDS011;12243;42.708;23.310;2023-08-20T13:26:55;3.85;;;3.65;;
16450;SDS011;12243;42.708;23.310;2023-08-20T13:29:22;3.90;;;3.70;;
16450;SDS011;12243;42.708;23.310;2023-08-20T13:31:49;3.70;;;3.50;;
16450;SDS011;12243;42.708;23.310;2023-08-20T13:34:16;3.63;;;3.50;;
16450;SDS011;12243;42.708;23.310;2023-08-20T13:36:43;3.72;;;3.35;;
16450;SDS011;12243;42.708;23.310;2023-08-20T13:39:12;3.20;;;3.10;;
16450;SDS011;12243;42.708;23.310;2023-08-20T13:41:41;3.60;;;3.40;;
16450;SDS011;12243;42.708;23.310;2023-08-20T13:44:08;3.65;;;3.50;;
16450;SDS011;12243;42.708;23.310;2023-08-20T13:46:35;3.42;;;3.22;;
16450;SDS011;12243;42.708;23.310;2023-08-20T13:49:02;3.47;;;3.17;;
16450;SDS011;12243;42.708;23.310;2023-08-20T13:51:29;3.90;;;3.70;;
16450;SDS011;12243;42.708;23.310;2023-08-20T13:53:57;3.17;;;3.00;;
16450;SDS011;12243;42.708;23.310;2023-08-20T13:56:24;3.70;;;3.60;;
16450;SDS011;12243;42.708;23.310;2023-08-20T13:58:53;3.40;;;3.20;;
16450;SDS011;12243;42.708;23.310;2023-08-20T14:01:20;3.72;;;3.35;;
16450;SDS011;12243;42.708;23.310;2023-08-20T14:03:46;3.70;;;3.50;;
16450;SDS011;12243;42.708;23.310;2023-08-20T14:06:14;3.72;;;3.53;;
16450;SDS011;12243;42.708;23.310;2023-08-20T14:08:41;3.30;;;3.10;;
16450;SDS011;12243;42.708;23.310;2023-08-20T14:11:08;3.90;;;3.47;;
16450;SDS011;12243;42.708;23.310;2023-08-20T14:13:35;3.80;;;3.50;;
16450;SDS011;12243;42.708;23.310;2023-08-20T14:16:03;3.75;;;3.50;;
16450;SDS011;12243;42.708;23.310;2023-08-20T14:18:30;4.93;;;3.08;;
16450;SDS011;12243;42.708;23.310;2023-08-20T14:20:57;3.17;;;2.90;;
16450;SDS011;12243;42.708;23.310;2023-08-20T14:23:24;4.10;;;3.28;;
16450;SDS011;12243;42.708;23.310;2023-08-20T14:25:51;3.75;;;3.45;;
16450;SDS011;12243;42.708;23.310;2023-08-20T14:28:20;3.35;;;3.15;;
16450;SDS011;12243;42.708;23.310;2023-08-20T14:30:47;3.80;;;3.50;;
16450;SDS011;12243;42.708;23.310;2023-08-20T14:33:16;3.50;;;3.30;;
16450;SDS011;12243;42.708;23.310;2023-08-20T14:35:43;3.53;;;3.38;;
16450;SDS011;12243;42.708;23.310;2023-08-20T14:38:10;3.72;;;3.42;;
16450;SDS011;12243;42.708;23.310;2023-08-20T14:40:38;3.20;;;3.10;;
16450;SDS011;12243;42.708;23.310;2023-08-20T14:43:06;3.58;;;3.38;;
16450;SDS011;12243;42.708;23.310;2023-08-20T14:45:33;3.53;;;3.40;;